Time;durP1;ratioP1;P1;durP2;ratioP2;P2;SDS_P1;SDS_P2;PMS_P1;PMS_P2;Temp;Humidity;BMP_temperature;BMP_pressure;BME280_temperature;BME280_humidity;BME280_pressure;Samples;Min_cycle;Max_cycle;Signal;HPM_P1;HPM_P2
2022/06/11 00:01:07;;;;;;;5.87;3.30;;;;;;;16.42;100.00;99670.56;5136020;27;20649;-81
2022/06/11 00:03:36;;;;;;;6.60;3.20;;;;;;;16.10;100.00;99669.56;5135760;27;20278;-80
2022/06/11 00:06:06;;;;;;;6.10;3.53;;;;;;;16.27;100.00;99672.59;5135840;27;20193;-81
2022/06/11 00:08:37;;;;;;;6.60;3.50;;;;;;;16.38;100.00;99671.75;5134536;27;20202;-81
2022/06/11 00:11:05;;;;;;;5.00;3.67;;;;;;;16.37;100.00;99671.88;5131760;27;20631;-81
2022/06/11 00:13:36;;;;;;;3.90;3.30;;;;;;;16.21;100.00;99674.91;5135438;27;20273;-81
2022/06/11 00:16:05;;;;;;;5.63;3.40;;;;;;;16.20;100.00;99673.22;5135444;27;20194;-81
2022/06/11 00:18:35;;;;;;;7.73;3.80;;;;;;;16.18;100.00;99670.66;5089948;28;20195;-80
2022/06/11 00:21:05;;;;;;;5.93;3.30;;;;;;;16.25;100.00;99665.69;5088394;28;20204;-81
2022/06/11 00:23:33;;;;;;;4.80;3.27;;;;;;;16.28;100.00;99666.28;5091296;28;20278;-81
2022/06/11 00:26:05;;;;;;;6.43;3.40;;;;;;;16.29;100.00;99662.63;5089401;28;20701;-81
2022/06/11 00:28:35;;;;;;;5.47;3.60;;;;;;;16.35;100.00;99669.31;5086270;28;20203;-81
2022/06/11 00:31:04;;;;;;;7.83;3.70;;;;;;;16.40;100.00;99666.28;5085956;28;20223;-81
2022/06/11 00:33:35;;;;;;;5.27;3.47;;;;;;;16.50;100.00;99665.44;5092073;28;20243;-81
2022/06/11 00:36:04;;;;;;;4.90;3.87;;;;;;;16.61;100.00;99656.56;5092511;27;20205;-81
2022/06/11 00:38:34;;;;;;;5.90;3.10;;;;;;;16.66;100.00;99667.72;5108050;28;20274;-81
2022/06/11 00:41:04;;;;;;;6.30;3.80;;;;;;;16.95;100.00;99661.84;5112390;28;20273;-81
2022/06/11 00:43:37;;;;;;;5.20;3.60;;;;;;;16.77;100.00;99657.00;5051739;28;20651;-81
2022/06/11 00:46:53;;;;;;;6.67;3.80;;;;;;;16.75;100.00;99658.13;5051358;28;20217;-80
2022/06/11 00:49:29;;;;;;;8.70;4.10;;;;;;;16.50;100.00;99654.75;4988574;28;20206;-81
2022/06/11 00:52:06;;;;;;;4.13;3.53;;;;;;;16.49;100.00;99649.50;4986692;28;20214;-81
2022/06/11 00:54:36;;;;;;;5.80;3.37;;;;;;;16.51;100.00;99650.25;5022473;28;20231;-81
2022/06/11 00:57:10;;;;;;;6.27;3.30;;;;;;;16.45;100.00;99642.72;5043743;28;20292;-81
2022/06/11 00:59:42;;;;;;;4.97;3.60;;;;;;;16.57;100.00;99649.72;5051265;28;20195;-80
2022/06/11 01:02:11;;;;;;;5.90;3.27;;;;;;;16.38;100.00;99646.84;5051520;28;20652;-80
2022/06/11 01:04:47;;;;;;;7.27;3.50;;;;;;;16.46;100.00;99642.56;5016460;28;20228;-80
2022/06/11 01:07:46;;;;;;;6.10;3.70;;;;;;;16.44;100.00;99644.53;5057150;27;20196;-81
2022/06/11 01:10:42;;;;;;;6.63;2.87;;;;;;;16.51;100.00;99639.56;5127896;27;20209;-80
2022/06/11 01:13:30;;;;;;;6.33;3.60;;;;;;;16.63;100.00;99641.22;5104092;27;20198;-80
2022/06/11 01:16:02;;;;;;;6.80;3.63;;;;;;;16.51;100.00;99644.91;5131028;27;20202;-81
2022/06/11 01:18:41;;;;;;;5.87;3.50;;;;;;;16.43;100.00;99642.84;5131659;27;20194;-80
2022/06/11 01:21:20;;;;;;;5.37;3.80;;;;;;;16.38;100.00;99650.34;5130239;27;20265;-80
2022/06/11 01:24:18;;;;;;;5.50;4.00;;;;;;;16.36;100.00;99644.28;5131765;27;20194;-80
2022/06/11 01:27:28;;;;;;;6.07;3.40;;;;;;;16.42;100.00;99650.97;5117780;27;20280;-81
2022/06/11 01:30:01;;;;;;;5.20;3.83;;;;;;;16.27;100.00;99645.88;5134414;27;20190;-81
2022/06/11 01:32:45;;;;;;;4.47;4.03;;;;;;;16.45;100.00;99648.91;5133665;27;20210;-81
2022/06/11 01:35:25;;;;;;;7.43;3.93;;;;;;;16.50;100.00;99646.72;5132762;27;20194;-81
2022/06/11 01:37:57;;;;;;;8.83;4.30;;;;;;;16.45;100.00;99651.56;5132897;27;20209;-80
2022/06/11 01:40:38;;;;;;;6.50;3.80;;;;;;;16.38;100.00;99650.34;5132749;27;20217;-80
2022/06/11 01:43:17;;;;;;;5.47;4.03;;;;;;;16.38;100.00;99645.00;5132232;27;20198;-80
2022/06/11 01:45:48;;;;;;;7.07;3.50;;;;;;;16.48;100.00;99650.47;5128213;27;20221;-81
2022/06/11 01:48:21;;;;;;;8.70;3.60;;;;;;;16.61;100.00;99643.19;5128568;28;20217;-81
2022/06/11 01:50:55;;;;;;;4.73;3.30;;;;;;;16.47;100.00;99640.75;5132511;28;20190;-80
2022/06/11 01:53:42;;;;;;;5.10;3.30;;;;;;;16.46;100.00;99639.91;5132272;28;20273;-80
2022/06/11 01:56:24;;;;;;;5.03;3.97;;;;;;;16.39;100.00;99646.72;5142700;28;20190;-80
2022/06/11 01:59:15;;;;;;;10.93;4.17;;;;;;;16.00;100.00;99648.91;5134425;28;20206;-81
2022/06/11 02:02:03;;;;;;;5.37;3.33;;;;;;;16.11;100.00;99650.72;5131041;28;20205;-80
2022/06/11 02:04:45;;;;;;;5.50;3.80;;;;;;;16.18;100.00;99649.28;5129421;28;20190;-80
2022/06/11 02:07:19;;;;;;;7.80;3.60;;;;;;;16.13;100.00;99639.94;5133520;28;20202;-80
2022/06/11 02:10:04;;;;;;;6.00;3.90;;;;;;;16.17;100.00;99644.91;5130075;28;20195;-80
2022/06/11 02:12:42;;;;;;;9.13;3.80;;;;;;;16.27;100.00;99639.69;5132101;28;20251;-81
2022/06/11 02:15:17;;;;;;;6.37;3.60;;;;;;;16.35;100.00;99639.91;5133696;28;20190;-81
2022/06/11 02:17:51;;;;;;;10.63;4.03;;;;;;;16.39;100.00;99637.84;5131525;27;20190;-80
2022/06/11 02:20:24;;;;;;;4.03;3.50;;;;;;;16.37;100.00;99646.00;5133134;27;20198;-81
2022/06/11 02:23:01;;;;;;;5.90;3.47;;;;;;;16.39;100.00;99637.84;5137112;27;20190;-81
2022/06/11 02:25:36;;;;;;;6.47;3.70;;;;;;;16.44;100.00;99641.84;5137656;27;20218;-81
2022/06/11 02:28:10;;;;;;;7.50;3.63;;;;;;;16.49;100.00;99642.31;5137700;27;20198;-80
2022/06/11 02:30:43;;;;;;;6.30;3.40;;;;;;;16.46;100.00;99641.72;5133135;27;20208;-81
2022/06/11 02:33:15;;;;;;;7.03;3.90;;;;;;;16.22;100.00;99644.56;5129855;27;20220;-81
2022/06/11 02:35:47;;;;;;;5.43;3.33;;;;;;;16.01;100.00;99647.94;5137616;27;20194;-81
2022/06/11 02:38:18;;;;;;;8.33;3.70;;;;;;;16.07;100.00;99657.28;5136036;27;20213;-81
2022/06/11 02:40:50;;;;;;;5.27;3.63;;;;;;;16.19;100.00;99658.16;5137626;27;20265;-81
2022/06/11 02:43:19;;;;;;;10.10;3.97;;;;;;;16.22;100.00;99665.94;5137264;27;20202;-81
2022/06/11 02:45:48;;;;;;;7.60;3.57;;;;;;;16.19;100.00;99674.19;5132590;27;20699;-81
2022/06/11 02:48:18;;;;;;;10.87;4.00;;;;;;;16.10;100.00;99664.22;5134503;27;20312;-81
2022/06/11 02:50:48;;;;;;;5.63;3.37;;;;;;;16.22;100.00;99661.44;5135524;27;20198;-81
2022/06/11 02:53:17;;;;;;;4.90;3.70;;;;;;;16.28;100.00;99671.63;5072468;28;20204;-81
2022/06/11 02:55:47;;;;;;;8.70;3.70;;;;;;;16.33;100.00;99671.28;5073802;28;20203;-81
2022/06/11 02:58:16;;;;;;;4.60;3.73;;;;;;;16.30;100.00;99672.34;5073802;28;20204;-81
2022/06/11 03:00:47;;;;;;;6.17;4.00;;;;;;;16.29;100.00;99670.66;5073638;28;20196;-81
2022/06/11 03:03:15;;;;;;;7.00;3.93;;;;;;;16.30;100.00;99675.03;5070906;28;20227;-81
2022/06/11 03:05:45;;;;;;;8.83;3.53;;;;;;;16.37;100.00;99669.19;5070034;28;20216;-81
2022/06/11 03:08:14;;;;;;;6.37;3.73;;;;;;;16.39;100.00;99678.78;5072302;28;20196;-81
2022/06/11 03:10:42;;;;;;;5.47;3.60;;;;;;;16.40;100.00;99666.28;5070631;28;20212;-81
2022/06/11 03:13:11;;;;;;;6.30;3.60;;;;;;;16.52;100.00;99663.50;5069560;28;20200;-81
2022/06/11 03:15:40;;;;;;;4.30;3.60;;;;;;;16.57;100.00;99663.94;5073522;28;20200;-81
2022/06/11 03:18:09;;;;;;;6.13;4.00;;;;;;;16.48;100.00;99672.72;5110852;27;20209;-81
2022/06/11 03:20:37;;;;;;;9.67;3.70;;;;;;;16.54;100.00;99672.22;5128692;27;20202;-81
2022/06/11 03:23:06;;;;;;;7.43;3.80;;;;;;;16.36;100.00;99681.72;5130738;27;20225;-81
2022/06/11 03:25:36;;;;;;;8.10;3.27;;;;;;;16.42;100.00;99673.22;5136270;27;20243;-80
2022/06/11 03:28:08;;;;;;;7.57;3.77;;;;;;;16.47;100.00;99672.84;5135413;27;20187;-81
2022/06/11 03:30:37;;;;;;;6.57;3.73;;;;;;;16.53;100.00;99673.22;5136112;27;20298;-80
2022/06/11 03:33:06;;;;;;;9.63;3.73;;;;;;;16.61;100.00;99667.25;5096296;28;20638;-80
2022/06/11 03:35:35;;;;;;;6.63;4.00;;;;;;;16.62;100.00;99668.94;5095847;28;20328;-81
2022/06/11 03:38:07;;;;;;;7.30;3.90;;;;;;;16.62;100.00;99666.28;5096311;28;20196;-81
2022/06/11 03:40:37;;;;;;;8.10;3.90;;;;;;;16.65;100.00;99668.69;5085578;28;20195;-81
2022/06/11 03:43:06;;;;;;;5.77;3.67;;;;;;;16.54;100.00;99672.22;5090075;28;20223;-81
2022/06/11 03:45:36;;;;;;;8.17;3.70;;;;;;;16.70;100.00;99663.88;5093158;28;20661;-81
2022/06/11 03:48:05;;;;;;;10.60;4.33;;;;;;;16.61;100.00;99667.25;5096127;28;20203;-81
2022/06/11 03:50:37;;;;;;;5.77;3.93;;;;;;;16.63;100.00;99667.13;5094908;28;20210;-81
2022/06/11 03:53:07;;;;;;;6.70;3.93;;;;;;;16.73;100.00;99668.94;5094104;28;20274;-81
2022/06/11 03:55:39;;;;;;;6.03;3.73;;;;;;;16.50;100.00;99670.78;5088970;28;20225;-81
2022/06/11 03:58:09;;;;;;;12.63;4.30;;;;;;;16.72;100.00;99666.41;5094512;28;20199;-81
2022/06/11 04:03:26;;;;;;;7.23;3.90;;;;;;;16.53;100.00;99662.50;5095096;28;20274;-81
2022/06/11 04:05:55;;;;;;;9.13;4.33;;;;;;;16.46;100.00;99688.03;5094361;28;20192;-80
2022/06/11 04:08:25;;;;;;;6.40;3.70;;;;;;;16.06;100.00;99702.84;5092292;28;20203;-80
2022/06/11 04:10:58;;;;;;;6.27;3.80;;;;;;;15.86;100.00;99694.56;5094765;28;20208;-81
2022/06/11 04:13:27;;;;;;;8.40;3.60;;;;;;;16.09;100.00;99698.09;5094298;28;20192;-81
2022/06/11 04:15:58;;;;;;;8.37;4.30;;;;;;;16.11;100.00;99697.97;5093168;28;20191;-81
2022/06/11 04:18:31;;;;;;;7.60;4.50;;;;;;;16.21;100.00;99693.63;5091034;28;20196;-81
2022/06/11 04:21:00;;;;;;;12.27;4.20;;;;;;;16.25;100.00;99700.44;5095803;28;20199;-81
2022/06/11 04:23:30;;;;;;;7.53;4.37;;;;;;;16.44;100.00;99707.84;5093350;28;20184;-81
2022/06/11 04:26:02;;;;;;;6.57;4.37;;;;;;;16.40;100.00;99715.25;5094146;28;20192;-81
2022/06/11 04:28:33;;;;;;;9.37;4.30;;;;;;;16.38;100.00;99708.34;5071908;28;20805;-80
2022/06/11 04:31:03;;;;;;;7.80;4.07;;;;;;;16.27;100.00;99703.84;5070938;28;20679;-81
2022/06/11 04:33:32;;;;;;;8.57;4.60;;;;;;;16.40;100.00;99709.06;5051835;28;20208;-80
2022/06/11 04:36:00;;;;;;;9.00;4.47;;;;;;;16.48;100.00;99711.97;5049445;28;20200;-81
2022/06/11 04:38:29;;;;;;;9.20;4.40;;;;;;;16.54;100.00;99704.31;5042696;28;20204;-81
2022/06/11 04:40:59;;;;;;;5.50;4.10;;;;;;;16.72;100.00;99707.38;5050761;28;20723;-80
2022/06/11 04:43:27;;;;;;;11.33;4.37;;;;;;;16.78;100.00;99706.03;5048870;28;20201;-81
2022/06/11 04:45:56;;;;;;;9.27;4.43;;;;;;;16.78;100.00;99698.84;5052366;28;20288;-81
2022/06/11 04:48:24;;;;;;;7.60;4.27;;;;;;;16.83;100.00;99693.13;5089378;28;20223;-80
2022/06/11 04:50:53;;;;;;;8.30;3.90;;;;;;;16.98;100.00;99699.03;5095505;27;20228;-80
2022/06/11 04:53:22;;;;;;;6.17;4.30;;;;;;;17.06;100.00;99691.25;5133268;27;20199;-81
2022/06/11 04:55:51;;;;;;;8.03;4.30;;;;;;;17.22;100.00;99698.88;5126314;27;20256;-80
2022/06/11 04:58:23;;;;;;;7.87;4.20;;;;;;;17.10;100.00;99698.91;5132047;27;20194;-80
2022/06/11 05:00:51;;;;;;;7.87;4.07;;;;;;;17.16;100.00;99702.88;5134878;27;20218;-81
2022/06/11 05:03:20;;;;;;;5.53;3.90;;;;;;;17.34;100.00;99692.47;5134675;27;20190;-81
2022/06/11 05:05:49;;;;;;;10.57;4.33;;;;;;;17.37;100.00;99693.09;5129375;27;20198;-81
2022/06/11 05:08:17;;;;;;;6.93;4.20;;;;;;;17.34;100.00;99697.84;5128690;27;20217;-81
2022/06/11 05:10:46;;;;;;;7.10;4.13;;;;;;;17.38;100.00;99699.31;5129062;27;20657;-81
2022/06/11 05:13:15;;;;;;;8.10;4.53;;;;;;;17.49;100.00;99707.28;5134453;27;20361;-81
2022/06/11 05:15:52;;;;;;;9.60;3.97;;;;;;;17.72;100.00;99706.22;5132836;27;20225;-81
2022/06/11 05:18:22;;;;;;;8.93;4.30;;;;;;;17.83;100.00;99707.97;5133999;27;20246;-80
2022/06/11 05:20:51;;;;;;;9.07;4.27;;;;;;;17.86;100.00;99710.41;5134714;27;20204;-81
2022/06/11 05:23:19;;;;;;;8.30;4.03;;;;;;;17.74;100.00;99712.28;5131626;27;20254;-81
2022/06/11 05:25:48;;;;;;;6.17;4.73;;;;;;;17.52;100.00;99709.69;5133958;27;20190;-81
2022/06/11 05:28:19;;;;;;;9.43;4.57;;;;;;;17.60;100.00;99717.94;5141053;27;20206;-80
2022/06/11 05:30:52;;;;;;;7.20;5.00;;;;;;;17.44;100.00;99723.72;5140822;27;20290;-80
2022/06/11 05:33:21;;;;;;;10.87;5.00;;;;;;;17.56;100.00;99726.34;5134480;27;20191;-81
2022/06/11 05:35:51;;;;;;;7.83;5.00;;;;;;;17.51;100.00;99740.16;5134123;27;20210;-81
2022/06/11 05:38:23;;;;;;;9.50;5.13;;;;;;;17.07;100.00;99741.97;5132697;27;20281;-81
2022/06/11 05:40:53;;;;;;;7.73;4.40;;;;;;;17.48;100.00;99748.44;5133734;27;20197;-81
2022/06/11 05:43:22;;;;;;;10.03;5.27;;;;;;;17.50;100.00;99748.31;5132723;27;20198;-81
2022/06/11 05:45:55;;;;;;;8.20;5.00;;;;;;;17.55;100.00;99744.25;5133945;27;20183;-81
2022/06/11 05:48:28;;;;;;;8.53;4.90;;;;;;;17.52;100.00;99744.53;5133855;28;20221;-81
2022/06/11 05:50:59;;;;;;;4.80;4.10;;;;;;;17.65;100.00;99745.19;5133615;27;20350;-81
2022/06/11 05:53:29;;;;;;;7.57;4.53;;;;;;;17.59;100.00;99739.50;5132815;28;20202;-81
2022/06/11 05:55:59;;;;;;;8.47;4.57;;;;;;;17.67;100.00;99740.56;5130003;28;20202;-81
2022/06/11 05:58:33;;;;;;;14.57;6.27;;;;;;;17.89;100.00;99739.63;5131274;28;20205;-81
2022/06/11 06:01:04;;;;;;;20.73;10.73;;;;;;;17.95;100.00;99730.19;5133736;28;20202;-81
2022/06/11 06:03:33;;;;;;;14.70;7.30;;;;;;;18.18;100.00;99723.72;5132533;28;20189;-81
2022/06/11 06:06:01;;;;;;;20.80;13.97;;;;;;;18.39;100.00;99721.00;5133651;27;20220;-81
2022/06/11 06:08:29;;;;;;;39.37;19.80;;;;;;;18.40;100.00;99716.50;5130814;28;20317;-81
2022/06/11 06:10:58;;;;;;;19.97;8.10;;;;;;;18.17;100.00;99714.00;5125420;28;20209;-81
2022/06/11 06:16:13;;;;;;;9.20;5.27;;;;;;;18.39;100.00;99718.31;5090813;28;20287;-81
2022/06/11 06:18:42;;;;;;;8.50;4.47;;;;;;;18.35;100.00;99708.88;5090640;28;20191;-81
2022/06/11 06:21:11;;;;;;;13.83;8.83;;;;;;;18.50;100.00;99717.38;5086210;28;20310;-81
2022/06/11 06:23:39;;;;;;;6.93;4.57;;;;;;;18.52;100.00;99721.63;5085852;28;20203;-81
2022/06/11 06:26:08;;;;;;;9.57;4.93;;;;;;;18.65;100.00;99717.91;5085516;28;20307;-81
2022/06/11 06:28:36;;;;;;;8.27;6.00;;;;;;;18.77;100.00;99711.44;5080214;28;20219;-81
2022/06/11 06:31:07;;;;;;;9.57;4.00;;;;;;;18.94;100.00;99710.78;5084277;28;20227;-81
2022/06/11 06:33:37;;;;;;;9.30;4.90;;;;;;;19.17;100.00;99716.75;5090893;28;20188;-81
2022/06/11 06:36:07;;;;;;;11.63;5.13;;;;;;;19.33;100.00;99724.28;5090632;28;20195;-81
2022/06/11 06:38:38;;;;;;;7.37;3.77;;;;;;;19.49;100.00;99719.19;5086790;28;20200;-81
2022/06/11 06:41:09;;;;;;;6.90;3.53;;;;;;;19.64;100.00;99716.97;5084970;28;20214;-81
2022/06/11 06:43:38;;;;;;;7.83;3.90;;;;;;;19.82;100.00;99722.47;5092385;28;20184;-81
2022/06/11 06:46:07;;;;;;;9.03;4.23;;;;;;;19.51;100.00;99730.66;5128555;28;20246;-81
2022/06/11 06:48:37;;;;;;;6.23;3.90;;;;;;;19.64;100.00;99730.41;5127444;28;20217;-81
2022/06/11 06:51:07;;;;;;;8.33;4.20;;;;;;;19.70;100.00;99728.00;5110524;28;20277;-82
2022/06/11 06:53:36;;;;;;;8.83;4.10;;;;;;;19.79;100.00;99729.00;5130715;28;20203;-81
2022/06/11 06:56:06;;;;;;;8.83;4.00;;;;;;;19.96;100.00;99730.91;5133065;28;20201;-82
2022/06/11 06:58:34;;;;;;;5.93;3.90;;;;;;;20.01;100.00;99735.88;5133718;28;20200;-81
2022/06/11 07:01:04;;;;;;;8.93;4.30;;;;;;;20.07;100.00;99727.22;5129719;28;20205;-81
2022/06/11 07:03:33;;;;;;;8.27;3.90;;;;;;;20.08;100.00;99731.63;5134571;27;20194;-81
2022/06/11 07:06:04;;;;;;;6.97;3.53;;;;;;;20.28;100.00;99735.97;5099089;27;20183;-81
2022/06/11 07:08:33;;;;;;;7.23;3.67;;;;;;;20.49;100.00;99729.56;5133822;27;20210;-81
2022/06/11 07:11:02;;;;;;;7.30;3.83;;;;;;;20.53;100.00;99721.03;5134030;27;20225;-81
2022/06/11 07:13:32;;;;;;;8.77;3.87;;;;;;;20.46;100.00;99722.63;5134828;27;20641;-81
2022/06/11 07:16:02;;;;;;;8.93;3.90;;;;;;;20.38;100.00;99719.78;5136757;27;20692;-81
2022/06/11 07:18:36;;;;;;;6.77;3.27;;;;;;;20.50;100.00;99720.47;5136912;27;20197;-81
2022/06/11 07:21:14;;;;;;;5.50;3.40;;;;;;;20.67;100.00;99722.41;5134485;27;20709;-82
2022/06/11 07:23:46;;;;;;;9.00;3.87;;;;;;;20.60;100.00;99717.75;5132607;27;20194;-82
2022/06/11 07:26:17;;;;;;;8.00;4.17;;;;;;;20.62;100.00;99719.28;5136839;27;20190;-83
2022/06/11 07:28:49;;;;;;;6.50;3.73;;;;;;;20.48;100.00;99717.94;5135078;27;20205;-82
2022/06/11 07:31:17;;;;;;;7.20;3.40;;;;;;;20.41;100.00;99719.50;5136739;27;20295;-82
2022/06/11 07:33:48;;;;;;;11.00;5.00;;;;;;;20.68;100.00;99716.03;5132524;27;20182;-81
2022/06/11 07:36:18;;;;;;;7.00;4.17;;;;;;;20.98;100.00;99714.84;5136358;27;20277;-81
2022/06/11 07:38:47;;;;;;;5.30;3.13;;;;;;;21.17;100.00;99715.75;5132166;27;20277;-81
2022/06/11 07:41:15;;;;;;;5.30;3.37;;;;;;;21.21;100.00;99714.41;5133489;27;20186;-81
2022/06/11 07:43:44;;;;;;;5.90;3.17;;;;;;;21.31;100.00;99713.38;5129387;27;20629;-81
2022/06/11 07:46:15;;;;;;;7.53;3.37;;;;;;;21.31;100.00;99707.16;5128461;27;20204;-81
2022/06/11 07:48:44;;;;;;;5.47;3.20;;;;;;;21.26;100.00;99707.63;5136124;27;20240;-81
2022/06/11 07:51:12;;;;;;;6.37;3.00;;;;;;;21.48;100.00;99713.53;5135532;27;20198;-81
2022/06/11 07:53:43;;;;;;;8.27;3.25;;;;;;;21.71;100.00;99712.06;5134919;27;20272;-82
2022/06/11 07:56:11;;;;;;;9.52;3.45;;;;;;;21.85;100.00;99718.75;5133502;27;20187;-81
2022/06/11 07:58:40;;;;;;;6.72;2.88;;;;;;;21.45;100.00;99716.56;5134460;27;20202;-81
2022/06/11 08:01:10;;;;;;;5.95;2.85;;;;;;;21.78;100.00;99709.59;5135946;27;20194;-81
2022/06/11 08:03:39;;;;;;;9.13;3.60;;;;;;;22.00;100.00;99720.75;5135927;27;20191;-81
2022/06/11 08:06:08;;;;;;;9.77;3.37;;;;;;;22.31;100.00;99720.31;5129296;27;20198;-81
2022/06/11 08:08:36;;;;;;;5.90;2.78;;;;;;;22.39;100.00;99724.88;5134219;27;20270;-81
2022/06/11 08:11:07;;;;;;;7.22;3.22;;;;;;;22.18;100.00;99717.16;5126339;27;20202;-82
2022/06/11 08:13:35;;;;;;;4.28;2.60;;;;;;;22.27;100.00;99714.34;5135775;27;20198;-81
2022/06/11 08:16:04;;;;;;;7.22;2.90;;;;;;;22.45;100.00;99721.56;5134161;27;20273;-81
2022/06/11 08:18:33;;;;;;;5.20;2.47;;;;;;;22.67;100.00;99720.13;5133782;27;20198;-81
2022/06/11 08:21:02;;;;;;;3.83;2.30;;;;;;;22.89;100.00;99716.06;5135672;27;20197;-82
2022/06/11 08:23:31;;;;;;;5.57;2.50;;;;;;;22.60;100.00;99708.31;5131997;27;20225;-81
2022/06/11 08:25:59;;;;;;;6.30;3.10;;;;;;;22.64;100.00;99717.75;5135406;27;20229;-81
2022/06/11 08:28:28;;;;;;;5.88;2.80;;;;;;;22.95;100.00;99712.69;5129430;27;20218;-81
2022/06/11 08:30:56;;;;;;;7.05;2.28;;;;;;;23.08;100.00;99708.53;5129761;27;20201;-82
2022/06/11 08:33:25;;;;;;;6.20;2.70;;;;;;;23.18;100.00;99712.94;5134022;27;20194;-82
2022/06/11 08:35:53;;;;;;;6.22;2.67;;;;;;;23.31;100.00;99716.00;5133702;27;20279;-82
2022/06/11 08:38:21;;;;;;;4.90;2.42;;;;;;;23.58;100.00;99722.97;5133905;27;20218;-81
2022/06/11 08:40:53;;;;;;;8.15;2.60;;;;;;;23.59;100.00;99717.41;5134782;27;20206;-81
2022/06/11 08:43:27;;;;;;;4.35;2.40;;;;;;;23.14;100.00;99709.69;5135174;27;20247;-81
2022/06/11 08:46:00;;;;;;;5.28;2.30;;;;;;;23.47;100.00;99712.47;5132576;27;20201;-81
2022/06/11 08:48:40;;;;;;;6.30;2.53;;;;;;;23.69;100.00;99704.56;5127186;27;20281;-81
2022/06/11 08:51:16;;;;;;;8.30;2.50;;;;;;;23.29;100.00;99709.91;5133285;27;20191;-81
2022/06/11 08:53:49;;;;;;;5.80;2.47;;;;;;;23.84;100.00;99712.03;5132444;27;20198;-81
2022/06/11 08:56:24;;;;;;;5.20;2.70;;;;;;;23.98;100.00;99706.75;5127415;27;20199;-82
2022/06/11 08:59:06;;;;;;;4.90;2.35;;;;;;;24.05;100.00;99709.63;5133817;27;20276;-81
2022/06/11 09:01:49;;;;;;;8.40;2.55;;;;;;;24.01;100.00;99707.41;5129824;27;20262;-81
2022/06/11 09:04:46;;;;;;;7.72;2.30;;;;;;;24.17;100.00;99702.84;5141597;27;20211;-82
2022/06/11 09:07:30;;;;;;;4.63;2.25;;;;;;;24.18;100.00;99701.81;5142564;27;20641;-81
2022/06/11 09:10:11;;;;;;;5.63;2.17;;;;;;;24.17;100.00;99696.59;5133168;27;20221;-82
2022/06/11 09:13:08;;;;;;;6.65;2.40;;;;;;;24.16;100.00;99705.72;5132780;27;20193;-81
2022/06/11 09:15:49;;;;;;;5.47;2.53;;;;;;;23.99;100.00;99685.94;5134411;27;20205;-81
2022/06/11 09:18:34;;;;;;;10.73;2.65;;;;;;;23.89;100.00;99694.25;5134516;27;20202;-81
2022/06/11 09:21:18;;;;;;;6.80;2.47;;;;;;;24.15;100.00;99687.78;5133038;27;20358;-81
2022/06/11 09:24:25;;;;;;;7.70;2.35;;;;;;;24.43;100.00;99680.97;5130129;27;20198;-81
2022/06/11 09:27:00;;;;;;;7.90;1.85;;;;;;;23.61;100.00;99685.63;5098983;27;20209;-81
2022/06/11 09:29:33;;;;;;;5.43;1.80;;;;;;;24.17;100.00;99688.47;5134535;27;20270;-81
2022/06/11 09:32:12;;;;;;;5.68;2.25;;;;;;;24.45;100.00;99686.22;5126770;27;20237;-81
2022/06/11 09:34:49;;;;;;;7.05;2.10;;;;;;;24.46;100.00;99683.34;5129685;27;20201;-81
2022/06/11 09:37:23;;;;;;;4.32;2.13;;;;;;;24.39;100.00;99686.91;5134208;27;20193;-81
2022/06/11 09:39:58;;;;;;;11.75;2.55;;;;;;;24.86;100.00;99686.88;5132589;27;20197;-81
2022/06/11 09:42:43;;;;;;;5.07;2.00;;;;;;;25.16;100.00;99687.09;5132694;27;20202;-81
2022/06/11 09:45:17;;;;;;;4.00;1.90;;;;;;;24.19;100.00;99700.81;5133809;27;20190;-81
2022/06/11 09:47:58;;;;;;;6.05;1.80;;;;;;;24.55;100.00;99697.69;5134242;27;20191;-81
2022/06/11 09:50:34;;;;;;;5.68;2.08;;;;;;;24.81;100.00;99687.44;5131770;28;20229;-81
2022/06/11 09:53:28;;;;;;;4.85;2.20;;;;;;;24.26;100.00;99687.44;5130179;28;20316;-81
2022/06/11 09:56:03;;;;;;;4.45;1.70;;;;;;;24.48;100.00;99689.41;5130624;28;20202;-81
2022/06/11 09:58:43;;;;;;;6.30;2.10;;;;;;;24.33;100.00;99693.88;5131718;28;20273;-81
2022/06/11 10:01:16;;;;;;;4.93;1.90;;;;;;;24.02;100.00;99690.16;5135301;28;20194;-80
2022/06/11 10:03:53;;;;;;;4.95;1.85;;;;;;;23.42;100.00;99704.84;5132186;28;20202;-81
2022/06/11 10:06:26;;;;;;;7.25;1.80;;;;;;;23.53;100.00;99698.28;5130749;28;20193;-81
2022/06/11 10:08:57;;;;;;;5.47;1.92;;;;;;;24.50;100.00;99684.66;5130139;28;20194;-81
2022/06/11 10:11:31;;;;;;;5.43;1.90;;;;;;;25.18;100.00;99685.03;5133768;28;20192;-81
2022/06/11 10:14:28;;;;;;;3.65;1.73;;;;;;;24.98;100.00;99685.47;5133879;28;20209;-81
2022/06/11 10:17:00;;;;;;;7.38;1.90;;;;;;;24.41;100.00;99693.81;5133686;28;20289;-81
2022/06/11 10:19:34;;;;;;;3.45;1.58;;;;;;;24.44;100.00;99687.25;5133728;28;20190;-81
2022/06/11 10:22:10;;;;;;;4.07;1.70;;;;;;;24.85;100.00;99682.50;5131053;28;20195;-81
2022/06/11 10:24:43;;;;;;;5.05;2.28;;;;;;;24.70;100.00;99684.25;5132476;28;20194;-80
2022/06/11 10:27:17;;;;;;;4.80;1.80;;;;;;;24.15;100.00;99677.81;5127249;28;20213;-81
2022/06/11 10:29:50;;;;;;;4.68;2.10;;;;;;;24.53;100.00;99683.50;5133582;28;20214;-81
2022/06/11 10:32:23;;;;;;;7.20;2.10;;;;;;;24.56;100.00;99683.13;5132012;28;20245;-81
2022/06/11 10:34:59;;;;;;;6.75;1.98;;;;;;;25.08;100.00;99680.69;5131320;28;20198;-82
2022/06/11 10:37:35;;;;;;;5.55;1.90;;;;;;;25.21;100.00;99676.56;5129954;27;20194;-82
2022/06/11 10:40:17;;;;;;;6.38;1.85;;;;;;;25.11;100.00;99674.09;5136744;27;20193;-81
2022/06/11 10:42:54;;;;;;;4.13;2.00;;;;;;;24.92;100.00;99688.91;5094252;28;20192;-81
2022/06/11 10:45:23;;;;;;;4.00;1.83;;;;;;;24.79;100.00;99688.59;5091054;28;20672;-81
2022/06/11 10:47:54;;;;;;;4.10;1.65;;;;;;;24.72;100.00;99684.94;5086565;28;20199;-81
2022/06/11 10:50:25;;;;;;;3.42;1.83;;;;;;;24.81;100.00;99694.72;5091852;28;20223;-81
2022/06/11 10:53:03;;;;;;;6.43;2.03;;;;;;;24.79;100.00;99691.31;5088765;28;20233;-81
2022/06/11 10:55:35;;;;;;;3.80;1.70;;;;;;;24.95;100.00;99690.41;5094080;28;20200;-81
2022/06/11 10:58:14;;;;;;;3.60;1.77;;;;;;;24.92;100.00;99690.78;5088035;28;20203;-81
2022/06/11 11:00:50;;;;;;;6.47;2.00;;;;;;;24.67;100.00;99695.44;5108576;27;20199;-81
2022/06/11 11:03:29;;;;;;;3.42;1.80;;;;;;;24.83;100.00;99693.50;5133371;27;20190;-81
2022/06/11 11:06:02;;;;;;;6.85;2.20;;;;;;;24.82;100.00;99689.13;5111055;27;20204;-81
2022/06/11 11:08:33;;;;;;;5.20;1.70;;;;;;;24.99;100.00;99689.00;5135465;27;20195;-81
2022/06/11 11:11:02;;;;;;;6.15;2.15;;;;;;;25.14;100.00;99686.44;5130893;27;20222;-81
2022/06/11 11:13:39;;;;;;;2.67;1.45;;;;;;;25.11;100.00;99679.50;5135194;27;20195;-81
2022/06/11 11:16:21;;;;;;;4.10;1.70;;;;;;;25.13;100.00;99688.31;5134070;27;20193;-81
2022/06/11 11:19:02;;;;;;;3.75;1.15;;;;;;;25.10;100.00;99681.38;5131093;27;20230;-81
2022/06/11 11:21:34;;;;;;;5.32;1.77;;;;;;;24.82;100.00;99682.84;5134520;27;20275;-81
2022/06/11 11:24:13;;;;;;;5.68;1.55;;;;;;;24.65;100.00;99689.38;5134580;27;20197;-81
2022/06/11 11:26:52;;;;;;;4.90;1.60;;;;;;;24.72;100.00;99690.34;5136561;27;20198;-81
2022/06/11 11:29:24;;;;;;;4.80;1.75;;;;;;;25.45;100.00;99680.97;5136639;27;20668;-82
2022/06/11 11:31:57;;;;;;;3.72;1.45;;;;;;;25.71;100.00;99672.47;5090758;28;20317;-81
2022/06/11 11:34:27;;;;;;;4.82;1.60;;;;;;;25.92;100.00;99675.34;5089384;28;20211;-81
2022/06/11 11:36:59;;;;;;;6.50;1.52;;;;;;;25.87;100.00;99673.19;5086535;28;20290;-82
2022/06/11 11:39:32;;;;;;;4.50;1.58;;;;;;;25.04;100.00;99673.09;5092288;28;20192;-81
2022/06/11 11:42:13;;;;;;;4.88;1.52;;;;;;;24.60;100.00;99684.44;5090535;28;20198;-81
2022/06/11 11:44:49;;;;;;;5.25;2.20;;;;;;;24.60;100.00;99672.78;5009184;28;20241;-81
2022/06/11 11:47:22;;;;;;;4.25;1.85;;;;;;;24.56;100.00;99669.59;5008828;28;20202;-81
2022/06/11 11:49:55;;;;;;;3.45;2.17;;;;;;;24.74;100.00;99669.34;5006385;28;20233;-81
2022/06/11 11:52:27;;;;;;;5.25;1.70;;;;;;;24.86;100.00;99673.34;5007359;28;20202;-82
2022/06/11 11:55:05;;;;;;;6.63;1.80;;;;;;;24.97;100.00;99672.94;5004432;28;20271;-81
2022/06/11 11:57:35;;;;;;;4.25;1.50;;;;;;;25.11;100.00;99671.38;5046860;28;20260;-81